createdAt,value
2023-03-19T00:00:28.453Z,100716.00
2023-03-19T00:02:55.527Z,100715.34
2023-03-19T00:05:22.333Z,100719.09
2023-03-19T00:07:48.951Z,100727.19
2023-03-19T00:10:15.604Z,100732.34
2023-03-19T00:12:42.353Z,100733.28
2023-03-19T00:15:14.555Z,100727.78
2023-03-19T00:17:43.364Z,100730.41
2023-03-19T00:20:11.420Z,100734.06
2023-03-19T00:22:38.315Z,100730.25
2023-03-19T00:25:05.161Z,100733.69
2023-03-19T00:27:31.810Z,100733.34
2023-03-19T00:29:58.487Z,100739.63
2023-03-19T00:32:25.711Z,100745.25
2023-03-19T00:34:52.357Z,100756.78
2023-03-19T00:37:19.115Z,100749.00
2023-03-19T00:39:45.851Z,100754.94
2023-03-19T00:42:12.646Z,100752.78
2023-03-19T00:44:39.286Z,100753.59
2023-03-19T00:47:07.544Z,100757.25
2023-03-19T00:49:34.307Z,100765.47
2023-03-19T00:52:01.371Z,100768.28
2023-03-19T00:54:28.051Z,100772.25
2023-03-19T00:56:56.071Z,100771.41
2023-03-19T00:59:22.743Z,100775.38
2023-03-19T01:01:49.443Z,100781.28
2023-03-19T01:04:16.222Z,100781.06
2023-03-19T01:06:42.959Z,100772.63
2023-03-19T01:09:09.812Z,100777.44
2023-03-19T01:11:36.623Z,100772.16
2023-03-19T01:14:03.654Z,100778.06
2023-03-19T01:16:30.509Z,100784.31
2023-03-19T01:18:57.420Z,100797.19
2023-03-19T01:21:24.515Z,100800.66
2023-03-19T01:23:52.165Z,100803.47
2023-03-19T01:26:19.022Z,100811.69
2023-03-19T01:28:45.827Z,100821.78
2023-03-19T01:31:12.527Z,100820.13
2023-03-19T01:33:39.585Z,100824.38
2023-03-19T01:36:06.602Z,100827.19
2023-03-19T01:38:33.514Z,100826.69
2023-03-19T01:41:00.570Z,100837.38
2023-03-19T01:43:29.391Z,100851.44
2023-03-19T01:45:59.228Z,100850.38
2023-03-19T01:48:29.376Z,100856.00
2023-03-19T01:50:56.838Z,100845.41
2023-03-19T01:53:26.251Z,100852.47
2023-03-19T01:55:55.549Z,100870.47
2023-03-19T01:58:24.910Z,100869.94
2023-03-19T02:00:52.914Z,100882.31
2023-03-19T02:03:19.687Z,100882.94
2023-03-19T02:05:48.615Z,100886.06
2023-03-19T02:08:16.412Z,100884.41
2023-03-19T02:10:44.726Z,100891.19
2023-03-19T02:13:11.856Z,100889.81
2023-03-19T02:15:38.866Z,100890.13
2023-03-19T02:18:05.873Z,100882.00
2023-03-19T02:20:36.013Z,100878.38
2023-03-19T02:23:27.010Z,100875.88
2023-03-19T02:25:56.677Z,100877.34
2023-03-19T02:28:24.313Z,100877.63
2023-03-19T02:30:52.269Z,100881.59
2023-03-19T02:33:19.065Z,100872.66
2023-03-19T02:35:47.671Z,100878.56
2023-03-19T02:38:14.494Z,100870.97
2023-03-19T02:40:59.933Z,100872.13
2023-03-19T02:43:27.234Z,100881.16
2023-03-19T02:45:54.409Z,100880.31
2023-03-19T02:48:21.197Z,100889.06
2023-03-19T02:50:47.926Z,100888.00
2023-03-19T02:53:16.804Z,100900.06
2023-03-19T02:55:43.740Z,100894.44
2023-03-19T02:58:10.359Z,100889.16
2023-03-19T03:00:37.796Z,100894.78
2023-03-19T03:03:06.829Z,100891.16
2023-03-19T03:05:33.736Z,100899.84
2023-03-19T03:08:00.463Z,100902.97
2023-03-19T03:10:27.688Z,100896.00
2023-03-19T03:12:54.342Z,100900.78
2023-03-19T03:15:21.861Z,100906.69
2023-03-19T03:17:48.608Z,100909.81
2023-03-19T03:20:17.896Z,100902.53
2023-03-19T03:22:44.942Z,100912.94
2023-03-19T03:25:11.697Z,100906.81
2023-03-19T03:27:38.452Z,100906.25
2023-03-19T03:30:07.713Z,100918.31
2023-03-19T03:32:37.656Z,100921.09
2023-03-19T03:35:05.400Z,100925.34
2023-03-19T03:37:32.423Z,100935.75
2023-03-19T03:39:59.021Z,100926.50
2023-03-19T03:42:30.303Z,100938.03
2023-03-19T03:44:56.912Z,100944.78
2023-03-19T03:47:23.554Z,100945.91
2023-03-19T03:49:50.291Z,100944.25
2023-03-19T03:52:16.991Z,100942.59
2023-03-19T03:54:43.603Z,100936.44
2023-03-19T03:57:10.260Z,100937.59
2023-03-19T03:59:36.951Z,100937.59
2023-03-19T04:02:04.488Z,100938.72
2023-03-19T04:04:31.329Z,100945.47
2023-03-19T04:06:58.029Z,100963.44
2023-03-19T04:09:24.826Z,100953.34
2023-03-19T04:11:52.024Z,100965.72
2023-03-19T04:14:18.792Z,100975.28
2023-03-19T04:16:45.550Z,100974.44
2023-03-19T04:19:12.254Z,100977.03
2023-03-19T04:21:38.906Z,100980.34
2023-03-19T04:24:05.850Z,100979.84
2023-03-19T04:26:32.762Z,100984.59
2023-03-19T04:28:59.408Z,100989.09
2023-03-19T04:31:26.126Z,100995.00
2023-03-19T04:33:54.864Z,100998.41
2023-03-19T04:36:21.563Z,101014.09
2023-03-19T04:38:48.226Z,101009.09
2023-03-19T04:41:16.515Z,101015.81
2023-03-19T04:43:43.190Z,101014.19
2023-03-19T04:46:09.973Z,101016.16
2023-03-19T04:48:36.756Z,101036.91
2023-03-19T04:51:04.256Z,101039.72
2023-03-19T04:53:31.101Z,101030.75
2023-03-19T04:55:57.788Z,101034.72
2023-03-19T04:58:24.432Z,101039.50
2023-03-19T05:00:51.121Z,101036.97
2023-03-19T05:03:17.817Z,101047.34
2023-03-19T05:05:44.916Z,101044.84
2023-03-19T05:08:11.834Z,101044.84
2023-03-19T05:10:38.487Z,101054.41
2023-03-19T05:13:05.083Z,101049.66
2023-03-19T05:15:31.881Z,101054.72
2023-03-19T05:17:59.074Z,101051.91
2023-03-19T05:20:25.717Z,101056.97
2023-03-19T05:22:53.081Z,101058.97
2023-03-19T05:25:19.760Z,101068.78
2023-03-19T05:27:46.559Z,101068.28
2023-03-19T05:30:13.340Z,101073.88
2023-03-19T05:32:40.998Z,101077.81
2023-03-19T05:35:08.032Z,101074.47
2023-03-19T05:37:34.741Z,101075.31
2023-03-19T05:40:01.429Z,101078.41
2023-03-19T05:42:30.666Z,101084.31
2023-03-19T05:44:57.351Z,101086.28
2023-03-19T05:47:23.966Z,101098.34
2023-03-19T05:49:50.625Z,101094.16
2023-03-19T05:52:17.476Z,101095.31
2023-03-19T05:54:44.256Z,101102.88
2023-03-19T05:57:10.950Z,101101.22
2023-03-19T05:59:37.638Z,101104.28
2023-03-19T06:02:04.392Z,101104.00
2023-03-19T06:04:31.377Z,101105.69
2023-03-19T06:06:58.135Z,101111.59
2023-03-19T06:09:25.102Z,101112.72
2023-03-19T06:11:51.767Z,101109.38
2023-03-19T06:14:18.471Z,101112.47
2023-03-19T06:16:45.144Z,101119.22
2023-03-19T06:19:14.805Z,101120.66
2023-03-19T06:21:41.773Z,101123.47
2023-03-19T06:24:08.537Z,101122.91
2023-03-19T06:26:35.349Z,101131.31
2023-03-19T06:29:02.086Z,101128.81
2023-03-19T06:31:28.906Z,101135.56
2023-03-19T06:33:56.609Z,101140.31
2023-03-19T06:36:23.303Z,101144.25
2023-03-19T06:38:50.673Z,101152.16
2023-03-19T06:41:17.587Z,101159.72
2023-03-19T06:43:44.267Z,101161.69
2023-03-19T06:46:11.806Z,101165.59
2023-03-19T06:48:38.823Z,101174.28
2023-03-19T06:51:05.826Z,101173.44
2023-03-19T06:53:32.986Z,101175.44
2023-03-19T06:55:59.621Z,101180.22
2023-03-19T06:58:27.201Z,101185.25
2023-03-19T07:00:53.827Z,101180.50
2023-03-19T07:03:20.893Z,101188.34
2023-03-19T07:05:49.045Z,101193.16
2023-03-19T07:08:15.664Z,101191.16
2023-03-19T07:10:42.311Z,101195.94
2023-03-19T07:13:08.948Z,101200.97
2023-03-19T07:15:36.814Z,101211.34
2023-03-19T07:18:03.923Z,101213.31
2023-03-19T07:20:30.914Z,101222.81
2023-03-19T07:22:57.682Z,101220.34
2023-03-19T07:25:24.392Z,101218.66
2023-03-19T07:27:51.012Z,101224.56
2023-03-19T07:30:17.824Z,101222.59
2023-03-19T07:32:44.583Z,101234.13
2023-03-19T07:35:11.323Z,101236.06
2023-03-19T07:37:37.958Z,101240.00
2023-03-19T07:40:05.344Z,101247.56
2023-03-19T07:42:36.655Z,101259.59
2023-03-19T07:45:04.108Z,101259.88
2023-03-19T07:47:31.073Z,101260.69
2023-03-19T07:49:58.332Z,101264.28
2023-03-19T07:52:26.147Z,101261.13
2023-03-19T07:54:52.909Z,101262.47
2023-03-19T07:57:19.859Z,101264.97
2023-03-19T07:59:46.795Z,101265.22
2023-03-19T08:02:13.751Z,101269.41
2023-03-19T08:04:40.608Z,101274.13
2023-03-19T08:07:07.364Z,101265.94
2023-03-19T08:09:34.800Z,101265.91
2023-03-19T08:12:01.469Z,101268.66
2023-03-19T08:14:28.057Z,101271.69
2023-03-19T08:16:54.914Z,101278.38
2023-03-19T08:19:22.438Z,101283.09
2023-03-19T08:21:49.201Z,101287.81
2023-03-19T08:24:16.041Z,101288.06
2023-03-19T08:26:42.619Z,101298.38
2023-03-19T08:29:09.718Z,101305.69
2023-03-19T08:31:36.539Z,101299.50
2023-03-19T08:34:05.134Z,101300.84
2023-03-19T08:36:32.520Z,101299.41
2023-03-19T08:38:59.224Z,101307.25
2023-03-19T08:41:26.217Z,101308.94
2023-03-19T08:43:52.939Z,101314.78
2023-03-19T08:46:19.665Z,101314.50
2023-03-19T08:48:46.597Z,101317.00
2023-03-19T08:51:13.243Z,101322.34
2023-03-19T08:53:40.196Z,101325.66
2023-03-19T08:56:08.019Z,101330.16
2023-03-19T08:58:34.701Z,101330.69
2023-03-19T09:01:05.343Z,101333.19
2023-03-19T09:03:32.491Z,101333.75
2023-03-19T09:06:00.717Z,101331.44
2023-03-19T09:08:28.468Z,101342.09
2023-03-19T09:10:55.826Z,101343.78
2023-03-19T09:13:22.759Z,101358.34
2023-03-19T09:15:50.205Z,101352.44
2023-03-19T09:18:17.304Z,101351.00
2023-03-19T09:20:44.718Z,101347.06
2023-03-19T09:23:11.620Z,101346.75
2023-03-19T09:25:38.338Z,101350.09
2023-03-19T09:28:05.165Z,101354.88
2023-03-19T09:30:32.078Z,101355.72
2023-03-19T09:32:59.035Z,101364.13
2023-03-19T09:35:31.385Z,101369.75
2023-03-19T09:37:59.856Z,101370.88
2023-03-19T09:40:34.075Z,101363.28
2023-03-19T09:43:19.776Z,101361.63
2023-03-19T09:45:47.867Z,101356.84
2023-03-19T09:48:18.901Z,101360.81
2023-03-19T09:50:47.097Z,101364.44
2023-03-19T09:53:13.938Z,101374.28
2023-03-19T09:55:48.402Z,101368.66
2023-03-19T09:58:19.507Z,101378.22
2023-03-19T10:00:50.801Z,101383.84
2023-03-19T10:03:20.750Z,101380.50
2023-03-19T10:06:06.077Z,101385.03
2023-03-19T10:09:01.988Z,101383.38
2023-03-19T10:11:36.098Z,101390.09
2023-03-19T10:14:15.087Z,101389.03
2023-03-19T10:16:44.229Z,101386.78
2023-03-19T10:19:14.133Z,101385.63
2023-03-19T10:21:47.193Z,101397.41
2023-03-19T10:24:13.840Z,101403.53
2023-03-19T10:26:41.596Z,101408.63
2023-03-19T10:29:14.880Z,101410.31
2023-03-19T10:31:50.383Z,101407.50
2023-03-19T10:34:29.587Z,101406.09
2023-03-19T10:37:04.278Z,101409.47
2023-03-19T10:39:34.216Z,101405.22
2023-03-19T10:42:10.441Z,101402.13
2023-03-19T10:45:09.731Z,101404.66
2023-03-19T10:47:40.179Z,101401.75
2023-03-19T10:50:07.765Z,101408.81
2023-03-19T10:52:39.529Z,101408.56
2023-03-19T10:55:19.604Z,101414.53
2023-03-19T10:57:49.508Z,101413.31
2023-03-19T11:00:17.418Z,101416.06
2023-03-19T11:02:48.660Z,101426.63
2023-03-19T11:05:15.878Z,101425.50
2023-03-19T11:07:42.669Z,101419.28
2023-03-19T11:10:16.373Z,101425.97
2023-03-19T11:12:53.152Z,101425.34
2023-03-19T11:15:24.140Z,101426.75
2023-03-19T11:17:57.769Z,101425.31
2023-03-19T11:20:37.377Z,101427.81
2023-03-19T11:23:09.438Z,101421.81
2023-03-19T11:25:38.221Z,101420.41
2023-03-19T11:28:14.721Z,101418.97
2023-03-19T11:31:00.355Z,101436.06
2023-03-19T11:33:50.453Z,101430.13
2023-03-19T11:36:17.153Z,101436.31
2023-03-19T11:39:04.125Z,101433.16
2023-03-19T11:41:37.039Z,101434.00
2023-03-19T11:44:22.678Z,101424.47
2023-03-19T11:46:54.398Z,101431.19
2023-03-19T11:49:35.405Z,101441.28
2023-03-19T11:52:04.909Z,101435.06
2023-03-19T11:54:54.530Z,101435.91
2023-03-19T11:57:30.326Z,101435.91
2023-03-19T12:00:33.710Z,101444.03
2023-03-19T12:03:18.850Z,101450.50
2023-03-19T12:06:13.743Z,101456.13
2023-03-19T12:08:45.656Z,101450.50
2023-03-19T12:11:28.946Z,101451.63
2023-03-19T12:14:20.937Z,101455.28
2023-03-19T12:16:56.820Z,101454.72
2023-03-19T12:19:33.179Z,101454.19
2023-03-19T12:22:03.336Z,101457.84
2023-03-19T12:24:48.620Z,101457.56
2023-03-19T12:27:21.710Z,101450.59
2023-03-19T12:29:54.447Z,101465.25
2023-03-19T12:32:44.468Z,101450.88
2023-03-19T12:35:15.293Z,101457.38
2023-03-19T12:37:45.586Z,101470.06
2023-03-19T12:40:35.105Z,101455.81
2023-03-19T12:43:04.728Z,101465.13
2023-03-19T12:45:35.249Z,101458.72
2023-03-19T12:48:22.352Z,101456.81
2023-03-19T12:50:52.058Z,101461.59
2023-03-19T12:53:31.426Z,101460.50
2023-03-19T12:56:00.711Z,101465.56
2023-03-19T12:58:46.909Z,101469.81
2023-03-19T13:01:18.329Z,101460.31
2023-03-19T13:04:11.540Z,101455.31
2023-03-19T13:06:41.595Z,101466.84
2023-03-19T13:09:20.467Z,101458.69
2023-03-19T13:11:53.259Z,101454.19
2023-03-19T13:14:38.704Z,101452.59
2023-03-19T13:17:24.107Z,101457.38
2023-03-19T13:19:54.272Z,101456.53
2023-03-19T13:22:28.676Z,101452.38
2023-03-19T13:24:55.686Z,101449.56
2023-03-19T13:27:24.690Z,101454.63
2023-03-19T13:30:01.520Z,101450.13
2023-03-19T13:32:51.358Z,101451.56
2023-03-19T13:35:27.521Z,101446.25
2023-03-19T13:38:12.371Z,101450.19
2023-03-19T13:40:49.708Z,101444.03
2023-03-19T13:43:31.541Z,101441.53
2023-03-19T13:46:06.156Z,101450.22
2023-03-19T13:48:33.386Z,101449.41
2023-03-19T13:51:01.066Z,101444.31
2023-03-19T13:53:35.868Z,101444.75
2023-03-19T13:56:15.738Z,101444.72
2023-03-19T13:59:13.010Z,101451.34
2023-03-19T14:01:40.674Z,101447.66
2023-03-19T14:04:17.868Z,101451.53
2023-03-19T14:06:47.263Z,101452.59
2023-03-19T14:09:35.210Z,101454.53
2023-03-19T14:12:12.378Z,101451.13
2023-03-19T14:14:43.546Z,101460.25
2023-03-19T14:17:30.486Z,101466.09
2023-03-19T14:20:03.581Z,101449.59
2023-03-19T14:22:40.107Z,101461.00
2023-03-19T14:25:17.711Z,101469.59
2023-03-19T14:28:04.657Z,101468.97
2023-03-19T14:30:39.185Z,101467.16
2023-03-19T14:33:08.636Z,101466.81
2023-03-19T14:35:37.057Z,101463.38
2023-03-19T14:38:10.324Z,101475.69
2023-03-19T14:40:45.752Z,101471.13
2023-03-19T14:43:23.336Z,101473.03
2023-03-19T14:46:00.345Z,101479.47
2023-03-19T14:48:45.948Z,101478.06
2023-03-19T14:51:12.740Z,101473.78
2023-03-19T14:53:57.618Z,101477.66
2023-03-19T14:56:26.391Z,101481.03
2023-03-19T14:58:54.474Z,101487.16
2023-03-19T15:01:22.137Z,101489.41
2023-03-19T15:03:54.035Z,101492.75
2023-03-19T15:06:20.684Z,101492.44
2023-03-19T15:08:49.739Z,101489.34
2023-03-19T15:11:16.455Z,101493.81
2023-03-19T15:13:43.273Z,101493.50
2023-03-19T15:16:22.056Z,101490.41
2023-03-19T15:18:49.342Z,101484.44
2023-03-19T15:21:16.755Z,101494.91
2023-03-19T15:23:46.471Z,101505.81
2023-03-19T15:26:13.566Z,101499.06
2023-03-19T15:28:50.653Z,101503.34
2023-03-19T15:31:46.212Z,101501.34
2023-03-19T15:34:17.734Z,101495.19
2023-03-19T15:36:44.624Z,101499.69
2023-03-19T15:39:12.184Z,101498.00
2023-03-19T15:41:41.029Z,101506.75
2023-03-19T15:44:10.786Z,101491.84
2023-03-19T15:46:39.751Z,101494.44
2023-03-19T15:49:10.049Z,101496.72
2023-03-19T15:51:37.201Z,101490.25
2023-03-19T15:54:04.753Z,101493.06
2023-03-19T15:56:32.518Z,101484.06
2023-03-19T15:58:59.767Z,101487.50
2023-03-19T16:01:27.345Z,101483.84
2023-03-19T16:03:57.268Z,101490.31
2023-03-19T16:06:31.740Z,101494.25
2023-03-19T16:09:19.763Z,101497.69
2023-03-19T16:11:46.781Z,101494.31
2023-03-19T16:14:25.870Z,101492.63
2023-03-19T16:16:58.998Z,101489.00
2023-03-19T16:19:25.835Z,101495.78
2023-03-19T16:21:52.514Z,101496.38
2023-03-19T16:24:25.063Z,101486.56
2023-03-19T16:26:52.051Z,101498.13
2023-03-19T16:29:29.354Z,101488.63
2023-03-19T16:31:59.875Z,101501.00
2023-03-19T16:34:32.225Z,101499.94
2023-03-19T16:36:59.678Z,101500.00
2023-03-19T16:39:37.036Z,101505.34
2023-03-19T16:42:09.480Z,101502.28
2023-03-19T16:44:39.984Z,101511.03
2023-03-19T16:47:13.313Z,101524.84
2023-03-19T16:49:40.073Z,101525.75
2023-03-19T16:52:10.580Z,101529.41
2023-03-19T16:54:37.483Z,101537.34
2023-03-19T16:57:04.344Z,101541.84
2023-03-19T16:59:31.377Z,101539.94
2023-03-19T17:01:58.053Z,101549.81
2023-03-19T17:04:24.882Z,101541.44
2023-03-19T17:06:51.646Z,101536.72
2023-03-19T17:09:18.309Z,101539.28
2023-03-19T17:11:45.284Z,101546.03
2023-03-19T17:14:20.295Z,101547.47
2023-03-19T17:16:50.904Z,101555.38
2023-03-19T17:19:25.968Z,101555.88
2023-03-19T17:21:57.513Z,101560.09
2023-03-19T17:24:24.409Z,101568.16
2023-03-19T17:26:51.685Z,101567.53
2023-03-19T17:29:20.403Z,101568.88
2023-03-19T17:31:47.713Z,101573.38
2023-03-19T17:34:18.131Z,101578.63
2023-03-19T17:36:52.077Z,101579.69
2023-03-19T17:39:19.115Z,101579.13
2023-03-19T17:41:46.321Z,101591.72
2023-03-19T17:44:14.721Z,101580.72
2023-03-19T17:46:51.721Z,101576.19
2023-03-19T17:49:26.372Z,101580.06
2023-03-19T17:51:53.042Z,101583.09
2023-03-19T17:54:20.360Z,101581.38
2023-03-19T17:56:47.006Z,101592.84
2023-03-19T17:59:13.985Z,101589.75
2023-03-19T18:01:43.178Z,101586.31
2023-03-19T18:04:12.827Z,101596.16
2023-03-19T18:06:40.851Z,101587.38
2023-03-19T18:09:07.592Z,101598.06
2023-03-19T18:11:34.265Z,101606.50
2023-03-19T18:14:01.076Z,101601.38
2023-03-19T18:16:29.584Z,101608.69
2023-03-19T18:19:03.558Z,101605.88
2023-03-19T18:21:31.308Z,101601.97
2023-03-19T18:23:58.126Z,101606.47
2023-03-19T18:26:25.221Z,101608.94
2023-03-19T18:28:53.383Z,101610.09
2023-03-19T18:31:26.604Z,101608.94
2023-03-19T18:34:05.590Z,101601.63
2023-03-19T18:36:33.085Z,101608.94
2023-03-19T18:38:59.961Z,101606.97
2023-03-19T18:41:29.221Z,101606.13
2023-03-19T18:43:56.021Z,101604.44
2023-03-19T18:46:30.261Z,101607.28
2023-03-19T18:48:58.558Z,101601.97
2023-03-19T18:51:25.247Z,101603.06
2023-03-19T18:53:51.943Z,101599.41
2023-03-19T18:56:21.282Z,101598.06
2023-03-19T18:58:48.333Z,101596.88
2023-03-19T19:01:16.584Z,101587.31
2023-03-19T19:03:45.504Z,101584.50
2023-03-19T19:06:46.930Z,101586.19
2023-03-19T19:09:14.593Z,101580.81
2023-03-19T19:11:41.990Z,101581.38
2023-03-19T19:14:15.540Z,101577.63
2023-03-19T19:16:42.267Z,101570.88
2023-03-19T19:19:17.598Z,101565.47
2023-03-19T19:21:44.279Z,101567.66
2023-03-19T19:24:11.027Z,101570.69
2023-03-19T19:26:37.746Z,101580.53
2023-03-19T19:29:04.630Z,101574.56
2023-03-19T19:31:32.600Z,101570.63
2023-03-19T19:34:00.404Z,101574.50
2023-03-19T19:36:28.316Z,101584.63
2023-03-19T19:38:55.544Z,101585.47
2023-03-19T19:41:23.530Z,101600.91
2023-03-19T19:43:51.243Z,101609.34
2023-03-19T19:46:18.868Z,101600.59
2023-03-19T19:48:47.051Z,101596.94
2023-03-19T19:51:18.882Z,101602.28
2023-03-19T19:53:45.814Z,101606.78
2023-03-19T19:56:16.979Z,101609.91
2023-03-19T19:58:44.365Z,101618.34
2023-03-19T20:01:15.219Z,101621.16
2023-03-19T20:03:42.134Z,101627.91
2023-03-19T20:06:08.868Z,101630.22
2023-03-19T20:08:38.087Z,101624.03
2023-03-19T20:11:12.996Z,101625.19
2023-03-19T20:13:40.779Z,101627.47
2023-03-19T20:16:11.683Z,101635.38
2023-03-19T20:18:43.940Z,101636.22
2023-03-19T20:21:12.715Z,101622.44
2023-03-19T20:23:40.862Z,101628.38
2023-03-19T20:26:07.520Z,101628.69
2023-03-19T20:28:35.821Z,101619.72
2023-03-19T20:31:04.150Z,101595.50
2023-03-19T20:33:33.285Z,101590.81
2023-03-19T20:36:00.922Z,101578.16
2023-03-19T20:38:28.056Z,101582.13
2023-03-19T20:40:56.370Z,101591.22
2023-03-19T20:43:28.399Z,101581.41
2023-03-19T20:45:57.222Z,101590.75
2023-03-19T20:48:24.592Z,101593.00
2023-03-19T20:50:52.462Z,101594.47
2023-03-19T20:53:19.548Z,101593.06
2023-03-19T20:55:47.231Z,101600.16
2023-03-19T20:58:17.769Z,101597.94
2023-03-19T21:00:44.719Z,101597.41
2023-03-19T21:03:16.821Z,101612.38
2023-03-19T21:05:44.118Z,101623.09
2023-03-19T21:08:16.161Z,101614.09
2023-03-19T21:10:43.414Z,101614.16
2023-03-19T21:13:13.726Z,101621.47
2023-03-19T21:15:41.081Z,101611.53
2023-03-19T21:18:08.632Z,101606.69
2023-03-19T21:20:36.691Z,101608.34
2023-03-19T21:23:03.327Z,101605.78
2023-03-19T21:25:31.524Z,101612.75
2023-03-19T21:28:02.619Z,101616.97
2023-03-19T21:30:30.202Z,101637.19
2023-03-19T21:32:57.528Z,101637.44
2023-03-19T21:35:25.217Z,101637.41
2023-03-19T21:37:52.990Z,101637.09
2023-03-19T21:40:20.973Z,101630.03
2023-03-19T21:42:52.600Z,101634.22
2023-03-19T21:45:32.787Z,101631.94
2023-03-19T21:48:22.742Z,101640.06
2023-03-19T21:50:52.592Z,101626.84
2023-03-19T21:53:19.611Z,101625.41
2023-03-19T21:55:46.622Z,101625.41
2023-03-19T21:58:14.053Z,101630.44
2023-03-19T22:00:40.985Z,101623.13
2023-03-19T22:03:13.980Z,101634.06
2023-03-19T22:05:40.697Z,101627.63
2023-03-19T22:08:07.914Z,101627.63
2023-03-19T22:10:34.997Z,101630.44
2023-03-19T22:13:01.696Z,101621.69
2023-03-19T22:15:35.169Z,101623.94
2023-03-19T22:18:02.889Z,101629.59
2023-03-19T22:20:29.592Z,101637.19
2023-03-19T22:22:56.638Z,101640.84
2023-03-19T22:25:23.892Z,101639.09
2023-03-19T22:27:51.209Z,101620.84
2023-03-19T22:30:36.260Z,101634.31
2023-03-19T22:33:23.091Z,101640.47
2023-03-19T22:35:50.186Z,101628.06
2023-03-19T22:38:17.883Z,101633.69
2023-03-19T22:40:53.024Z,101626.41
2023-03-19T22:43:27.759Z,101621.06
2023-03-19T22:45:56.238Z,101615.44
2023-03-19T22:48:24.147Z,101622.53
2023-03-19T22:50:51.294Z,101630.13
2023-03-19T22:53:36.405Z,101634.06
2023-03-19T22:56:04.352Z,101625.63
2023-03-19T22:58:32.200Z,101619.72
2023-03-19T23:00:59.135Z,101626.09
2023-03-19T23:03:27.093Z,101631.72
2023-03-19T23:05:58.833Z,101630.28
2023-03-19T23:08:26.647Z,101623.53
2023-03-19T23:10:53.809Z,101632.78
2023-03-19T23:13:22.673Z,101628.53
2023-03-19T23:15:53.881Z,101633.03
2023-03-19T23:18:24.160Z,101634.38
2023-03-19T23:20:51.501Z,101621.38
2023-03-19T23:23:18.633Z,101611.78
2023-03-19T23:25:47.050Z,101611.50
2023-03-19T23:28:23.834Z,101608.34
2023-03-19T23:30:51.811Z,101616.22
2023-03-19T23:33:19.772Z,101613.63
2023-03-19T23:35:47.313Z,101615.81
2023-03-19T23:38:14.036Z,101612.09
2023-03-19T23:40:44.204Z,101599.38
2023-03-19T23:43:19.288Z,101609.75
2023-03-19T23:45:47.061Z,101617.28
2023-03-19T23:48:17.948Z,101611.00
2023-03-19T23:50:44.930Z,101601.94
2023-03-19T23:53:22.139Z,101605.03
2023-03-19T23:55:51.191Z,101608.91
2023-03-19T23:58:18.264Z,101602.66
